sensor_id;sensor_type;location;lat;lon;timestamp;P1;durP1;ratioP1;P2;durP2;ratioP2
65691;SDS011;52411;52.716;6.696;2022-08-25T00:03:47;9.85;;;8.45;;
65691;SDS011;52411;52.716;6.696;2022-08-25T00:06:13;10.05;;;8.25;;
65691;SDS011;52411;52.716;6.696;2022-08-25T00:08:39;11.90;;;8.25;;
65691;SDS011;52411;52.716;6.696;2022-08-25T00:11:10;13.15;;;8.52;;
65691;SDS011;52411;52.716;6.696;2022-08-25T00:13:42;14.27;;;8.52;;
65691;SDS011;52411;52.716;6.696;2022-08-25T00:16:10;13.10;;;9.10;;
65691;SDS011;52411;52.716;6.696;2022-08-25T00:18:39;11.48;;;8.15;;
65691;SDS011;52411;52.716;6.696;2022-08-25T00:21:05;12.13;;;8.80;;
65691;SDS011;52411;52.716;6.696;2022-08-25T00:23:32;10.60;;;8.63;;
65691;SDS011;52411;52.716;6.696;2022-08-25T00:25:57;13.35;;;8.68;;
65691;SDS011;52411;52.716;6.696;2022-08-25T00:28:23;12.85;;;8.40;;
65691;SDS011;52411;52.716;6.696;2022-08-25T00:30:49;10.50;;;8.52;;
65691;SDS011;52411;52.716;6.696;2022-08-25T00:33:15;12.55;;;8.80;;
65691;SDS011;52411;52.716;6.696;2022-08-25T00:35:43;10.52;;;8.43;;
65691;SDS011;52411;52.716;6.696;2022-08-25T00:38:09;10.38;;;8.52;;
65691;SDS011;52411;52.716;6.696;2022-08-25T00:40:36;9.75;;;8.30;;
65691;SDS011;52411;52.716;6.696;2022-08-25T00:43:03;11.23;;;8.07;;
65691;SDS011;52411;52.716;6.696;2022-08-25T00:45:31;9.73;;;8.20;;
65691;SDS011;52411;52.716;6.696;2022-08-25T00:47:57;11.45;;;8.07;;
65691;SDS011;52411;52.716;6.696;2022-08-25T00:50:23;14.48;;;8.18;;
65691;SDS011;52411;52.716;6.696;2022-08-25T00:52:51;10.32;;;8.07;;
65691;SDS011;52411;52.716;6.696;2022-08-25T00:55:24;9.68;;;7.75;;
65691;SDS011;52411;52.716;6.696;2022-08-25T00:57:55;12.73;;;7.55;;
65691;SDS011;52411;52.716;6.696;2022-08-25T01:00:27;11.90;;;8.13;;
65691;SDS011;52411;52.716;6.696;2022-08-25T01:02:58;13.45;;;7.43;;
65691;SDS011;52411;52.716;6.696;2022-08-25T01:05:24;10.30;;;7.43;;
65691;SDS011;52411;52.716;6.696;2022-08-25T01:07:51;9.13;;;7.63;;
65691;SDS011;52411;52.716;6.696;2022-08-25T01:10:17;12.85;;;7.55;;
65691;SDS011;52411;52.716;6.696;2022-08-25T01:12:45;14.27;;;7.50;;
65691;SDS011;52411;52.716;6.696;2022-08-25T01:15:11;10.73;;;7.68;;
65691;SDS011;52411;52.716;6.696;2022-08-25T01:17:44;17.63;;;7.40;;
65691;SDS011;52411;52.716;6.696;2022-08-25T01:20:12;11.77;;;7.43;;
65691;SDS011;52411;52.716;6.696;2022-08-25T01:22:39;13.32;;;7.10;;
65691;SDS011;52411;52.716;6.696;2022-08-25T01:25:19;13.10;;;7.38;;
65691;SDS011;52411;52.716;6.696;2022-08-25T01:27:49;9.43;;;7.60;;
65691;SDS011;52411;52.716;6.696;2022-08-25T01:30:15;10.57;;;6.82;;
65691;SDS011;52411;52.716;6.696;2022-08-25T01:32:40;8.50;;;7.60;;
65691;SDS011;52411;52.716;6.696;2022-08-25T01:35:06;11.63;;;7.47;;
65691;SDS011;52411;52.716;6.696;2022-08-25T01:37:33;8.80;;;7.10;;
65691;SDS011;52411;52.716;6.696;2022-08-25T01:39:59;8.40;;;6.88;;
65691;SDS011;52411;52.716;6.696;2022-08-25T01:45:26;8.70;;;6.60;;
65691;SDS011;52411;52.716;6.696;2022-08-25T01:47:51;13.52;;;6.93;;
65691;SDS011;52411;52.716;6.696;2022-08-25T01:50:17;10.55;;;7.15;;
65691;SDS011;52411;52.716;6.696;2022-08-25T01:52:50;8.10;;;6.80;;
65691;SDS011;52411;52.716;6.696;2022-08-25T01:55:32;7.93;;;6.03;;
65691;SDS011;52411;52.716;6.696;2022-08-25T01:58:18;10.10;;;6.97;;
65691;SDS011;52411;52.716;6.696;2022-08-25T02:00:51;9.50;;;6.70;;
65691;SDS011;52411;52.716;6.696;2022-08-25T02:03:19;8.32;;;7.53;;
65691;SDS011;52411;52.716;6.696;2022-08-25T02:05:46;10.00;;;6.80;;
65691;SDS011;52411;52.716;6.696;2022-08-25T02:08:13;12.73;;;6.45;;
65691;SDS011;52411;52.716;6.696;2022-08-25T02:10:39;8.57;;;6.30;;
65691;SDS011;52411;52.716;6.696;2022-08-25T02:13:05;12.63;;;6.57;;
65691;SDS011;52411;52.716;6.696;2022-08-25T02:15:32;12.13;;;6.68;;
65691;SDS011;52411;52.716;6.696;2022-08-25T02:17:57;8.43;;;6.80;;
65691;SDS011;52411;52.716;6.696;2022-08-25T02:20:23;13.35;;;7.53;;
65691;SDS011;52411;52.716;6.696;2022-08-25T02:22:50;14.60;;;6.85;;
65691;SDS011;52411;52.716;6.696;2022-08-25T02:25:17;12.50;;;6.72;;
65691;SDS011;52411;52.716;6.696;2022-08-25T02:27:43;10.85;;;7.00;;
65691;SDS011;52411;52.716;6.696;2022-08-25T02:30:10;9.85;;;7.25;;
65691;SDS011;52411;52.716;6.696;2022-08-25T02:32:39;9.13;;;7.35;;
65691;SDS011;52411;52.716;6.696;2022-08-25T02:35:06;9.55;;;6.70;;
65691;SDS011;52411;52.716;6.696;2022-08-25T02:37:32;10.35;;;7.32;;
65691;SDS011;52411;52.716;6.696;2022-08-25T02:39:58;9.70;;;6.82;;
65691;SDS011;52411;52.716;6.696;2022-08-25T02:42:24;9.43;;;7.20;;
65691;SDS011;52411;52.716;6.696;2022-08-25T02:44:49;13.43;;;7.10;;
65691;SDS011;52411;52.716;6.696;2022-08-25T02:47:16;8.80;;;6.78;;
65691;SDS011;52411;52.716;6.696;2022-08-25T02:49:41;10.43;;;7.00;;
65691;SDS011;52411;52.716;6.696;2022-08-25T02:52:07;8.35;;;6.78;;
65691;SDS011;52411;52.716;6.696;2022-08-25T02:54:33;10.57;;;6.85;;
65691;SDS011;52411;52.716;6.696;2022-08-25T02:56:59;11.90;;;7.28;;
65691;SDS011;52411;52.716;6.696;2022-08-25T02:59:25;11.88;;;7.45;;
65691;SDS011;52411;52.716;6.696;2022-08-25T03:01:51;11.98;;;7.88;;
65691;SDS011;52411;52.716;6.696;2022-08-25T03:04:17;10.20;;;7.35;;
65691;SDS011;52411;52.716;6.696;2022-08-25T03:06:43;12.40;;;6.47;;
65691;SDS011;52411;52.716;6.696;2022-08-25T03:09:09;11.02;;;7.00;;
65691;SDS011;52411;52.716;6.696;2022-08-25T03:11:34;10.60;;;7.07;;
65691;SDS011;52411;52.716;6.696;2022-08-25T03:14:02;9.57;;;6.80;;
65691;SDS011;52411;52.716;6.696;2022-08-25T03:16:32;8.77;;;6.97;;
65691;SDS011;52411;52.716;6.696;2022-08-25T03:18:58;10.05;;;6.70;;
65691;SDS011;52411;52.716;6.696;2022-08-25T03:21:25;21.20;;;7.10;;
65691;SDS011;52411;52.716;6.696;2022-08-25T03:23:51;11.07;;;8.05;;
65691;SDS011;52411;52.716;6.696;2022-08-25T03:26:17;10.52;;;6.95;;
65691;SDS011;52411;52.716;6.696;2022-08-25T03:29:01;11.43;;;7.00;;
65691;SDS011;52411;52.716;6.696;2022-08-25T03:31:29;9.75;;;7.40;;
65691;SDS011;52411;52.716;6.696;2022-08-25T03:33:56;11.65;;;7.15;;
65691;SDS011;52411;52.716;6.696;2022-08-25T03:36:23;10.93;;;6.82;;
65691;SDS011;52411;52.716;6.696;2022-08-25T03:38:49;17.67;;;7.00;;
65691;SDS011;52411;52.716;6.696;2022-08-25T03:41:17;11.95;;;7.45;;
65691;SDS011;52411;52.716;6.696;2022-08-25T03:43:50;9.73;;;7.00;;
65691;SDS011;52411;52.716;6.696;2022-08-25T03:46:20;9.52;;;7.53;;
65691;SDS011;52411;52.716;6.696;2022-08-25T03:48:48;14.70;;;7.30;;
65691;SDS011;52411;52.716;6.696;2022-08-25T03:51:27;8.50;;;7.20;;
65691;SDS011;52411;52.716;6.696;2022-08-25T03:53:55;12.23;;;7.55;;
65691;SDS011;52411;52.716;6.696;2022-08-25T03:56:22;11.80;;;6.93;;
65691;SDS011;52411;52.716;6.696;2022-08-25T03:58:47;10.82;;;6.70;;
65691;SDS011;52411;52.716;6.696;2022-08-25T04:01:13;17.75;;;7.15;;
65691;SDS011;52411;52.716;6.696;2022-08-25T04:03:39;7.75;;;6.78;;
65691;SDS011;52411;52.716;6.696;2022-08-25T04:06:06;10.45;;;6.82;;
65691;SDS011;52411;52.716;6.696;2022-08-25T04:08:33;7.97;;;7.00;;
65691;SDS011;52411;52.716;6.696;2022-08-25T04:11:03;12.75;;;7.07;;
65691;SDS011;52411;52.716;6.696;2022-08-25T04:13:33;9.70;;;7.55;;
65691;SDS011;52411;52.716;6.696;2022-08-25T04:16:00;10.20;;;7.45;;
65691;SDS011;52411;52.716;6.696;2022-08-25T04:18:25;13.85;;;7.28;;
65691;SDS011;52411;52.716;6.696;2022-08-25T04:20:58;10.93;;;6.88;;
65691;SDS011;52411;52.716;6.696;2022-08-25T04:23:27;9.07;;;6.72;;
65691;SDS011;52411;52.716;6.696;2022-08-25T04:25:52;9.98;;;7.18;;
65691;SDS011;52411;52.716;6.696;2022-08-25T04:28:18;9.77;;;6.60;;
65691;SDS011;52411;52.716;6.696;2022-08-25T04:30:43;10.13;;;6.50;;
65691;SDS011;52411;52.716;6.696;2022-08-25T04:33:09;10.98;;;6.70;;
65691;SDS011;52411;52.716;6.696;2022-08-25T04:35:35;7.85;;;6.82;;
65691;SDS011;52411;52.716;6.696;2022-08-25T04:38:00;10.80;;;6.88;;
65691;SDS011;52411;52.716;6.696;2022-08-25T04:40:26;14.60;;;7.30;;
65691;SDS011;52411;52.716;6.696;2022-08-25T04:42:52;12.90;;;7.55;;
65691;SDS011;52411;52.716;6.696;2022-08-25T04:45:18;9.98;;;7.00;;
65691;SDS011;52411;52.716;6.696;2022-08-25T04:47:43;9.10;;;7.53;;
65691;SDS011;52411;52.716;6.696;2022-08-25T04:50:09;12.48;;;7.70;;
65691;SDS011;52411;52.716;6.696;2022-08-25T04:52:35;10.57;;;7.03;;
65691;SDS011;52411;52.716;6.696;2022-08-25T04:55:01;10.25;;;7.75;;
65691;SDS011;52411;52.716;6.696;2022-08-25T04:57:27;12.27;;;7.00;;
65691;SDS011;52411;52.716;6.696;2022-08-25T04:59:53;11.48;;;7.40;;
65691;SDS011;52411;52.716;6.696;2022-08-25T05:02:19;14.00;;;7.25;;
65691;SDS011;52411;52.716;6.696;2022-08-25T05:04:46;10.57;;;7.32;;
65691;SDS011;52411;52.716;6.696;2022-08-25T05:07:11;10.43;;;7.60;;
65691;SDS011;52411;52.716;6.696;2022-08-25T05:09:37;13.43;;;7.30;;
65691;SDS011;52411;52.716;6.696;2022-08-25T05:12:03;11.68;;;7.25;;
65691;SDS011;52411;52.716;6.696;2022-08-25T05:14:29;13.95;;;7.22;;
65691;SDS011;52411;52.716;6.696;2022-08-25T05:16:55;18.50;;;7.63;;
65691;SDS011;52411;52.716;6.696;2022-08-25T05:19:21;11.30;;;7.28;;
65691;SDS011;52411;52.716;6.696;2022-08-25T05:21:48;15.05;;;7.00;;
65691;SDS011;52411;52.716;6.696;2022-08-25T05:24:13;11.55;;;7.28;;
65691;SDS011;52411;52.716;6.696;2022-08-25T05:26:39;15.27;;;7.10;;
65691;SDS011;52411;52.716;6.696;2022-08-25T05:29:05;13.90;;;6.90;;
65691;SDS011;52411;52.716;6.696;2022-08-25T05:31:31;13.02;;;7.03;;
65691;SDS011;52411;52.716;6.696;2022-08-25T05:33:57;11.40;;;6.93;;
65691;SDS011;52411;52.716;6.696;2022-08-25T05:36:24;13.50;;;6.75;;
65691;SDS011;52411;52.716;6.696;2022-08-25T05:38:51;12.13;;;7.07;;
65691;SDS011;52411;52.716;6.696;2022-08-25T05:41:18;12.23;;;6.95;;
65691;SDS011;52411;52.716;6.696;2022-08-25T05:43:46;8.80;;;7.03;;
65691;SDS011;52411;52.716;6.696;2022-08-25T05:46:13;12.10;;;7.07;;
65691;SDS011;52411;52.716;6.696;2022-08-25T05:48:41;16.20;;;8.02;;
65691;SDS011;52411;52.716;6.696;2022-08-25T05:51:08;13.02;;;7.07;;
65691;SDS011;52411;52.716;6.696;2022-08-25T05:53:34;14.75;;;7.20;;
65691;SDS011;52411;52.716;6.696;2022-08-25T05:56:01;12.48;;;7.20;;
65691;SDS011;52411;52.716;6.696;2022-08-25T05:58:28;16.13;;;7.75;;
65691;SDS011;52411;52.716;6.696;2022-08-25T06:00:55;14.07;;;7.70;;
65691;SDS011;52411;52.716;6.696;2022-08-25T06:03:22;12.68;;;7.80;;
65691;SDS011;52411;52.716;6.696;2022-08-25T06:05:48;9.82;;;7.85;;
65691;SDS011;52411;52.716;6.696;2022-08-25T06:08:13;10.75;;;7.57;;
65691;SDS011;52411;52.716;6.696;2022-08-25T06:10:40;10.30;;;7.25;;
65691;SDS011;52411;52.716;6.696;2022-08-25T06:13:06;13.82;;;7.63;;
65691;SDS011;52411;52.716;6.696;2022-08-25T06:15:32;13.43;;;7.45;;
65691;SDS011;52411;52.716;6.696;2022-08-25T06:17:57;15.23;;;8.05;;
65691;SDS011;52411;52.716;6.696;2022-08-25T06:20:26;12.85;;;8.00;;
65691;SDS011;52411;52.716;6.696;2022-08-25T06:22:53;17.42;;;7.97;;
65691;SDS011;52411;52.716;6.696;2022-08-25T06:25:19;10.38;;;7.68;;
65691;SDS011;52411;52.716;6.696;2022-08-25T06:27:47;12.13;;;8.45;;
65691;SDS011;52411;52.716;6.696;2022-08-25T06:30:14;14.93;;;8.15;;
65691;SDS011;52411;52.716;6.696;2022-08-25T06:32:42;13.77;;;8.13;;
65691;SDS011;52411;52.716;6.696;2022-08-25T06:35:10;12.95;;;7.57;;
65691;SDS011;52411;52.716;6.696;2022-08-25T06:37:37;8.82;;;7.13;;
65691;SDS011;52411;52.716;6.696;2022-08-25T06:40:04;9.82;;;6.70;;
65691;SDS011;52411;52.716;6.696;2022-08-25T06:42:33;12.73;;;7.40;;
65691;SDS011;52411;52.716;6.696;2022-08-25T06:44:59;11.70;;;7.00;;
65691;SDS011;52411;52.716;6.696;2022-08-25T06:47:25;10.90;;;7.28;;
65691;SDS011;52411;52.716;6.696;2022-08-25T06:49:51;12.98;;;7.20;;
65691;SDS011;52411;52.716;6.696;2022-08-25T06:52:17;12.77;;;6.97;;
65691;SDS011;52411;52.716;6.696;2022-08-25T06:54:42;10.80;;;6.90;;
65691;SDS011;52411;52.716;6.696;2022-08-25T06:57:08;10.15;;;6.97;;
65691;SDS011;52411;52.716;6.696;2022-08-25T06:59:34;11.07;;;6.60;;
65691;SDS011;52411;52.716;6.696;2022-08-25T07:02:01;14.38;;;6.90;;
65691;SDS011;52411;52.716;6.696;2022-08-25T07:04:28;16.48;;;7.15;;
65691;SDS011;52411;52.716;6.696;2022-08-25T07:06:53;10.55;;;6.60;;
65691;SDS011;52411;52.716;6.696;2022-08-25T07:09:19;13.45;;;7.30;;
65691;SDS011;52411;52.716;6.696;2022-08-25T07:11:45;10.95;;;6.93;;
65691;SDS011;52411;52.716;6.696;2022-08-25T07:14:12;15.30;;;7.35;;
65691;SDS011;52411;52.716;6.696;2022-08-25T07:16:40;17.67;;;7.15;;
65691;SDS011;52411;52.716;6.696;2022-08-25T07:19:06;9.75;;;6.65;;
65691;SDS011;52411;52.716;6.696;2022-08-25T07:21:33;12.57;;;7.40;;
65691;SDS011;52411;52.716;6.696;2022-08-25T07:24:00;10.50;;;7.25;;
65691;SDS011;52411;52.716;6.696;2022-08-25T07:26:30;11.13;;;7.15;;
65691;SDS011;52411;52.716;6.696;2022-08-25T07:29:01;10.82;;;7.40;;
65691;SDS011;52411;52.716;6.696;2022-08-25T07:31:28;11.38;;;6.93;;
65691;SDS011;52411;52.716;6.696;2022-08-25T07:33:54;12.80;;;7.20;;
65691;SDS011;52411;52.716;6.696;2022-08-25T07:36:38;11.18;;;7.05;;
65691;SDS011;52411;52.716;6.696;2022-08-25T07:39:04;15.27;;;6.97;;
65691;SDS011;52411;52.716;6.696;2022-08-25T07:41:31;14.07;;;7.30;;
65691;SDS011;52411;52.716;6.696;2022-08-25T07:44:00;11.02;;;7.00;;
65691;SDS011;52411;52.716;6.696;2022-08-25T07:46:26;16.52;;;7.03;;
65691;SDS011;52411;52.716;6.696;2022-08-25T07:48:52;11.88;;;6.90;;
65691;SDS011;52411;52.716;6.696;2022-08-25T07:51:17;11.65;;;7.18;;
65691;SDS011;52411;52.716;6.696;2022-08-25T07:53:43;11.63;;;7.05;;
65691;SDS011;52411;52.716;6.696;2022-08-25T07:56:13;14.43;;;7.63;;
65691;SDS011;52411;52.716;6.696;2022-08-25T07:58:40;10.45;;;7.00;;
65691;SDS011;52411;52.716;6.696;2022-08-25T08:01:12;15.75;;;8.27;;
65691;SDS011;52411;52.716;6.696;2022-08-25T08:03:43;10.27;;;7.10;;
65691;SDS011;52411;52.716;6.696;2022-08-25T08:06:10;8.95;;;6.72;;
65691;SDS011;52411;52.716;6.696;2022-08-25T08:08:37;10.57;;;7.35;;
65691;SDS011;52411;52.716;6.696;2022-08-25T08:11:06;11.90;;;7.32;;
65691;SDS011;52411;52.716;6.696;2022-08-25T08:13:59;13.23;;;7.28;;
65691;SDS011;52411;52.716;6.696;2022-08-25T08:16:28;12.48;;;7.47;;
65691;SDS011;52411;52.716;6.696;2022-08-25T08:18:55;10.55;;;7.47;;
65691;SDS011;52411;52.716;6.696;2022-08-25T08:21:22;10.90;;;7.00;;
65691;SDS011;52411;52.716;6.696;2022-08-25T08:23:53;11.00;;;7.10;;
65691;SDS011;52411;52.716;6.696;2022-08-25T08:26:20;11.70;;;6.90;;
65691;SDS011;52411;52.716;6.696;2022-08-25T08:28:47;9.52;;;6.93;;
65691;SDS011;52411;52.716;6.696;2022-08-25T08:31:13;17.58;;;7.50;;
65691;SDS011;52411;52.716;6.696;2022-08-25T08:33:43;16.65;;;6.60;;
65691;SDS011;52411;52.716;6.696;2022-08-25T08:36:11;14.07;;;7.05;;
65691;SDS011;52411;52.716;6.696;2022-08-25T08:38:37;9.93;;;6.65;;
65691;SDS011;52411;52.716;6.696;2022-08-25T08:55:32;8.40;;;6.00;;
65691;SDS011;52411;52.716;6.696;2022-08-25T08:58:12;7.95;;;6.18;;
65691;SDS011;52411;52.716;6.696;2022-08-25T09:00:47;12.18;;;6.00;;
65691;SDS011;52411;52.716;6.696;2022-08-25T09:03:28;13.38;;;6.10;;
65691;SDS011;52411;52.716;6.696;2022-08-25T09:06:10;13.97;;;6.27;;
65691;SDS011;52411;52.716;6.696;2022-08-25T09:08:37;9.02;;;6.10;;
65691;SDS011;52411;52.716;6.696;2022-08-25T09:16:31;8.07;;;5.60;;
65691;SDS011;52411;52.716;6.696;2022-08-25T09:22:25;7.40;;;5.13;;
65691;SDS011;52411;52.716;6.696;2022-08-25T09:30:30;8.00;;;5.40;;
65691;SDS011;52411;52.716;6.696;2022-08-25T09:33:19;9.63;;;5.45;;
65691;SDS011;52411;52.716;6.696;2022-08-25T09:35:48;13.90;;;5.22;;
65691;SDS011;52411;52.716;6.696;2022-08-25T09:38:16;7.50;;;4.97;;
65691;SDS011;52411;52.716;6.696;2022-08-25T09:40:47;7.90;;;5.40;;
65691;SDS011;52411;52.716;6.696;2022-08-25T09:43:19;8.90;;;4.63;;
65691;SDS011;52411;52.716;6.696;2022-08-25T09:46:00;6.70;;;4.53;;
65691;SDS011;52411;52.716;6.696;2022-08-25T09:48:33;8.35;;;4.50;;
65691;SDS011;52411;52.716;6.696;2022-08-25T09:51:11;16.98;;;5.18;;
65691;SDS011;52411;52.716;6.696;2022-08-25T09:56:29;7.35;;;4.07;;
65691;SDS011;52411;52.716;6.696;2022-08-25T10:01:50;6.07;;;4.10;;
65691;SDS011;52411;52.716;6.696;2022-08-25T10:04:29;7.70;;;4.28;;
65691;SDS011;52411;52.716;6.696;2022-08-25T10:06:57;8.38;;;4.40;;
65691;SDS011;52411;52.716;6.696;2022-08-25T10:09:26;9.82;;;4.18;;
65691;SDS011;52411;52.716;6.696;2022-08-25T10:11:55;7.93;;;4.20;;
65691;SDS011;52411;52.716;6.696;2022-08-25T10:14:32;8.82;;;4.25;;
65691;SDS011;52411;52.716;6.696;2022-08-25T10:19:41;7.97;;;4.32;;
65691;SDS011;52411;52.716;6.696;2022-08-25T10:24:45;6.43;;;4.20;;
65691;SDS011;52411;52.716;6.696;2022-08-25T10:34:54;14.57;;;4.90;;
65691;SDS011;52411;52.716;6.696;2022-08-25T10:42:22;13.55;;;4.40;;
65691;SDS011;52411;52.716;6.696;2022-08-25T10:45:16;6.78;;;4.25;;
65691;SDS011;52411;52.716;6.696;2022-08-25T10:48:07;5.88;;;4.40;;
65691;SDS011;52411;52.716;6.696;2022-08-25T10:56:11;6.05;;;4.00;;
65691;SDS011;52411;52.716;6.696;2022-08-25T11:04:20;11.57;;;4.20;;
65691;SDS011;52411;52.716;6.696;2022-08-25T11:06:52;8.95;;;4.10;;
65691;SDS011;52411;52.716;6.696;2022-08-25T11:09:27;8.35;;;4.20;;
65691;SDS011;52411;52.716;6.696;2022-08-25T11:11:58;5.70;;;3.95;;
65691;SDS011;52411;52.716;6.696;2022-08-25T11:14:30;8.13;;;4.20;;
65691;SDS011;52411;52.716;6.696;2022-08-25T11:18:11;10.90;;;5.00;;
65691;SDS011;52411;52.716;6.696;2022-08-25T11:20:28;9.27;;;4.15;;
65691;SDS011;52411;52.716;6.696;2022-08-25T11:23:09;9.57;;;4.40;;
65691;SDS011;52411;52.716;6.696;2022-08-25T11:25:44;8.40;;;4.45;;
65691;SDS011;52411;52.716;6.696;2022-08-25T11:31:05;11.35;;;5.03;;
65691;SDS011;52411;52.716;6.696;2022-08-25T11:33:32;5.75;;;4.15;;
65691;SDS011;52411;52.716;6.696;2022-08-25T11:36:00;10.20;;;3.70;;
65691;SDS011;52411;52.716;6.696;2022-08-25T11:44:03;6.43;;;4.00;;
65691;SDS011;52411;52.716;6.696;2022-08-25T11:49:49;6.78;;;3.70;;
65691;SDS011;52411;52.716;6.696;2022-08-25T11:52:45;7.03;;;3.80;;
65691;SDS011;52411;52.716;6.696;2022-08-25T11:55:16;6.22;;;3.58;;
65691;SDS011;52411;52.716;6.696;2022-08-25T11:57:43;9.13;;;4.07;;
65691;SDS011;52411;52.716;6.696;2022-08-25T12:06:18;5.78;;;3.40;;
65691;SDS011;52411;52.716;6.696;2022-08-25T12:19:28;6.32;;;4.32;;
65691;SDS011;52411;52.716;6.696;2022-08-25T12:27:06;7.78;;;4.45;;
65691;SDS011;52411;52.716;6.696;2022-08-25T12:29:39;5.30;;;4.00;;
65691;SDS011;52411;52.716;6.696;2022-08-25T12:38:01;4.53;;;3.17;;
65691;SDS011;52411;52.716;6.696;2022-08-25T12:43:04;6.07;;;3.80;;
65691;SDS011;52411;52.716;6.696;2022-08-25T12:50:56;5.20;;;3.60;;
65691;SDS011;52411;52.716;6.696;2022-08-25T12:56:06;6.07;;;3.97;;
65691;SDS011;52411;52.716;6.696;2022-08-25T12:58:49;6.90;;;3.70;;
65691;SDS011;52411;52.716;6.696;2022-08-25T13:04:07;5.15;;;3.58;;
65691;SDS011;52411;52.716;6.696;2022-08-25T13:15:00;7.20;;;3.90;;
65691;SDS011;52411;52.716;6.696;2022-08-25T13:17:27;4.78;;;3.47;;
65691;SDS011;52411;52.716;6.696;2022-08-25T13:20:17;8.95;;;3.50;;
65691;SDS011;52411;52.716;6.696;2022-08-25T13:22:49;4.78;;;3.50;;
65691;SDS011;52411;52.716;6.696;2022-08-25T13:25:18;6.70;;;3.85;;
65691;SDS011;52411;52.716;6.696;2022-08-25T13:27:47;5.47;;;3.45;;
65691;SDS011;52411;52.716;6.696;2022-08-25T13:30:21;6.97;;;3.50;;
65691;SDS011;52411;52.716;6.696;2022-08-25T13:33:17;6.93;;;3.10;;
65691;SDS011;52411;52.716;6.696;2022-08-25T13:35:52;5.25;;;3.15;;
65691;SDS011;52411;52.716;6.696;2022-08-25T13:38:39;4.38;;;3.20;;
65691;SDS011;52411;52.716;6.696;2022-08-25T13:41:07;5.85;;;3.50;;
65691;SDS011;52411;52.716;6.696;2022-08-25T13:43:34;9.57;;;3.33;;
65691;SDS011;52411;52.716;6.696;2022-08-25T13:46:01;6.25;;;3.80;;
65691;SDS011;52411;52.716;6.696;2022-08-25T13:48:35;4.15;;;3.50;;
65691;SDS011;52411;52.716;6.696;2022-08-25T13:53:34;5.22;;;3.67;;
65691;SDS011;52411;52.716;6.696;2022-08-25T13:56:00;5.45;;;4.10;;
65691;SDS011;52411;52.716;6.696;2022-08-25T13:58:28;5.53;;;3.92;;
65691;SDS011;52411;52.716;6.696;2022-08-25T14:01:00;4.40;;;3.58;;
65691;SDS011;52411;52.716;6.696;2022-08-25T14:03:42;3.85;;;3.42;;
65691;SDS011;52411;52.716;6.696;2022-08-25T14:06:17;7.15;;;4.40;;
65691;SDS011;52411;52.716;6.696;2022-08-25T14:08:46;5.45;;;4.10;;
65691;SDS011;52411;52.716;6.696;2022-08-25T14:11:28;7.43;;;4.25;;
65691;SDS011;52411;52.716;6.696;2022-08-25T14:14:02;5.80;;;4.40;;
65691;SDS011;52411;52.716;6.696;2022-08-25T14:16:33;5.55;;;4.78;;
65691;SDS011;52411;52.716;6.696;2022-08-25T14:19:02;4.68;;;4.07;;
65691;SDS011;52411;52.716;6.696;2022-08-25T14:21:29;10.07;;;5.00;;
65691;SDS011;52411;52.716;6.696;2022-08-25T14:23:56;8.65;;;4.78;;
65691;SDS011;52411;52.716;6.696;2022-08-25T14:26:23;6.63;;;4.80;;
65691;SDS011;52411;52.716;6.696;2022-08-25T14:28:50;6.78;;;4.40;;
65691;SDS011;52411;52.716;6.696;2022-08-25T14:33:51;5.88;;;4.22;;
65691;SDS011;52411;52.716;6.696;2022-08-25T14:36:20;10.13;;;5.20;;
65691;SDS011;52411;52.716;6.696;2022-08-25T14:38:46;6.90;;;4.40;;
65691;SDS011;52411;52.716;6.696;2022-08-25T14:41:12;10.60;;;4.78;;
65691;SDS011;52411;52.716;6.696;2022-08-25T14:43:38;8.32;;;4.70;;
65691;SDS011;52411;52.716;6.696;2022-08-25T14:46:09;12.18;;;4.65;;
65691;SDS011;52411;52.716;6.696;2022-08-25T14:48:41;6.78;;;4.65;;
65691;SDS011;52411;52.716;6.696;2022-08-25T14:51:09;7.32;;;4.57;;
65691;SDS011;52411;52.716;6.696;2022-08-25T14:53:38;7.90;;;4.90;;
65691;SDS011;52411;52.716;6.696;2022-08-25T14:56:04;7.40;;;4.50;;
65691;SDS011;52411;52.716;6.696;2022-08-25T14:58:30;6.93;;;4.80;;
65691;SDS011;52411;52.716;6.696;2022-08-25T15:00:56;6.45;;;4.53;;
65691;SDS011;52411;52.716;6.696;2022-08-25T15:03:29;5.03;;;4.30;;
65691;SDS011;52411;52.716;6.696;2022-08-25T15:06:03;6.13;;;4.38;;
65691;SDS011;52411;52.716;6.696;2022-08-25T15:08:30;5.95;;;4.47;;
65691;SDS011;52411;52.716;6.696;2022-08-25T15:11:25;7.65;;;4.97;;
65691;SDS011;52411;52.716;6.696;2022-08-25T15:13:51;7.30;;;4.75;;
65691;SDS011;52411;52.716;6.696;2022-08-25T15:16:27;9.32;;;4.13;;
65691;SDS011;52411;52.716;6.696;2022-08-25T15:18:55;9.10;;;4.47;;
65691;SDS011;52411;52.716;6.696;2022-08-25T15:21:21;5.55;;;4.28;;
65691;SDS011;52411;52.716;6.696;2022-08-25T15:23:47;7.10;;;4.30;;
65691;SDS011;52411;52.716;6.696;2022-08-25T15:26:13;7.63;;;4.40;;
65691;SDS011;52411;52.716;6.696;2022-08-25T15:28:41;8.98;;;4.90;;
65691;SDS011;52411;52.716;6.696;2022-08-25T15:31:09;6.40;;;5.43;;
65691;SDS011;52411;52.716;6.696;2022-08-25T15:33:36;7.72;;;4.60;;
65691;SDS011;52411;52.716;6.696;2022-08-25T15:36:04;7.88;;;5.00;;
65691;SDS011;52411;52.716;6.696;2022-08-25T15:38:35;8.23;;;5.10;;
65691;SDS011;52411;52.716;6.696;2022-08-25T15:41:02;6.68;;;4.55;;
65691;SDS011;52411;52.716;6.696;2022-08-25T15:43:28;9.57;;;5.20;;
65691;SDS011;52411;52.716;6.696;2022-08-25T15:45:54;9.13;;;5.30;;
65691;SDS011;52411;52.716;6.696;2022-08-25T15:48:20;6.78;;;4.97;;
65691;SDS011;52411;52.716;6.696;2022-08-25T15:50:46;8.73;;;5.10;;
65691;SDS011;52411;52.716;6.696;2022-08-25T15:53:12;17.25;;;10.98;;
65691;SDS011;52411;52.716;6.696;2022-08-25T15:55:38;7.63;;;4.90;;
65691;SDS011;52411;52.716;6.696;2022-08-25T15:58:05;7.95;;;4.70;;
65691;SDS011;52411;52.716;6.696;2022-08-25T16:00:31;6.20;;;4.75;;
65691;SDS011;52411;52.716;6.696;2022-08-25T16:02:56;8.98;;;5.20;;
65691;SDS011;52411;52.716;6.696;2022-08-25T16:05:22;6.53;;;5.40;;
65691;SDS011;52411;52.716;6.696;2022-08-25T16:07:48;7.22;;;5.20;;
65691;SDS011;52411;52.716;6.696;2022-08-25T16:10:13;7.72;;;4.93;;
65691;SDS011;52411;52.716;6.696;2022-08-25T16:12:39;7.93;;;5.32;;
65691;SDS011;52411;52.716;6.696;2022-08-25T16:15:06;8.35;;;5.28;;
65691;SDS011;52411;52.716;6.696;2022-08-25T16:17:32;14.23;;;5.40;;
65691;SDS011;52411;52.716;6.696;2022-08-25T16:19:57;6.85;;;4.80;;
65691;SDS011;52411;52.716;6.696;2022-08-25T16:22:23;8.75;;;5.10;;
65691;SDS011;52411;52.716;6.696;2022-08-25T16:24:49;7.00;;;5.00;;
65691;SDS011;52411;52.716;6.696;2022-08-25T16:27:15;7.40;;;5.25;;
65691;SDS011;52411;52.716;6.696;2022-08-25T16:29:41;14.60;;;5.65;;
65691;SDS011;52411;52.716;6.696;2022-08-25T16:32:09;8.95;;;5.00;;
65691;SDS011;52411;52.716;6.696;2022-08-25T16:34:38;8.35;;;4.85;;
65691;SDS011;52411;52.716;6.696;2022-08-25T16:37:04;9.57;;;4.60;;
65691;SDS011;52411;52.716;6.696;2022-08-25T16:39:29;8.18;;;4.72;;
65691;SDS011;52411;52.716;6.696;2022-08-25T16:41:55;7.30;;;4.70;;
65691;SDS011;52411;52.716;6.696;2022-08-25T16:44:21;8.30;;;4.75;;
65691;SDS011;52411;52.716;6.696;2022-08-25T16:46:47;10.38;;;5.13;;
65691;SDS011;52411;52.716;6.696;2022-08-25T16:49:13;7.50;;;4.63;;
65691;SDS011;52411;52.716;6.696;2022-08-25T16:51:39;9.77;;;5.63;;
65691;SDS011;52411;52.716;6.696;2022-08-25T16:54:06;9.40;;;5.53;;
65691;SDS011;52411;52.716;6.696;2022-08-25T16:56:52;7.00;;;5.28;;
65691;SDS011;52411;52.716;6.696;2022-08-25T16:59:19;9.57;;;5.35;;
65691;SDS011;52411;52.716;6.696;2022-08-25T17:01:45;9.85;;;5.47;;
65691;SDS011;52411;52.716;6.696;2022-08-25T17:04:10;7.72;;;5.50;;
65691;SDS011;52411;52.716;6.696;2022-08-25T17:06:41;5.90;;;5.05;;